Time;durP1;ratioP1;P1;durP2;ratioP2;P2;SDS_P1;SDS_P2;PMS_P1;PMS_P2;Temp;Humidity;BMP_temperature;BMP_pressure;BME280_temperature;BME280_humidity;BME280_pressure;Samples;Min_cycle;Max_cycle;Signal;HPM_P1;HPM_P2
2021/09/21 00:02:19;;;;;;;3.83;3.40;;;;;;;17.18;55.96;96503.56;5034798;28;20065;-63
2021/09/21 00:04:44;;;;;;;4.22;3.38;;;;;;;17.16;56.10;96497.53;5034714;28;20104;-64
2021/09/21 00:07:10;;;;;;;5.15;3.45;;;;;;;17.04;55.75;96478.03;5034873;28;20095;-68
2021/09/21 00:09:35;;;;;;;5.22;3.90;;;;;;;17.14;55.70;96500.28;5034790;28;20021;-67
2021/09/21 00:12:01;;;;;;;4.30;3.40;;;;;;;17.16;55.95;96497.53;5034788;28;20026;-64
2021/09/21 00:14:26;;;;;;;4.28;3.63;;;;;;;17.07;55.87;96498.13;5034425;28;20041;-65
2021/09/21 00:16:52;;;;;;;5.22;3.95;;;;;;;17.05;56.19;96495.56;5033309;28;20105;-64
2021/09/21 00:19:18;;;;;;;6.15;4.32;;;;;;;17.01;56.05;96494.91;5034563;28;20056;-66
2021/09/21 00:21:43;;;;;;;4.97;4.40;;;;;;;17.01;56.43;96507.28;5034538;28;20472;-64
2021/09/21 00:24:09;;;;;;;4.15;3.33;;;;;;;16.98;56.68;96504.84;5034495;28;20144;-67
2021/09/21 00:26:35;;;;;;;6.85;4.65;;;;;;;16.93;55.97;96499.84;5034394;28;20021;-67
2021/09/21 00:29:00;;;;;;;4.63;3.83;;;;;;;16.93;56.40;96500.72;5034370;28;20026;-68
2021/09/21 00:31:36;;;;;;;5.93;4.47;;;;;;;16.85;57.01;96492.41;5034280;28;20030;-67
2021/09/21 00:34:07;;;;;;;5.75;4.82;;;;;;;16.75;57.06;96493.94;5034351;28;20025;-65
2021/09/21 00:36:38;;;;;;;6.32;5.30;;;;;;;16.75;56.89;96496.59;5034363;28;20037;-67
2021/09/21 00:39:05;;;;;;;6.28;5.07;;;;;;;16.71;57.06;96492.47;5034183;28;20148;-63
2021/09/21 00:41:34;;;;;;;5.65;5.15;;;;;;;16.68;57.27;96483.78;5034124;28;20041;-68
2021/09/21 00:44:00;;;;;;;6.28;5.18;;;;;;;16.68;57.24;96483.78;5034016;28;20487;-66
2021/09/21 00:46:26;;;;;;;8.45;5.75;;;;;;;16.65;57.35;96489.25;5033803;28;20041;-64
2021/09/21 00:48:51;;;;;;;8.23;5.47;;;;;;;16.66;57.55;96487.47;5033654;28;20025;-63
2021/09/21 00:51:17;;;;;;;9.73;6.68;;;;;;;16.62;57.55;96489.44;5033986;28;20026;-66
2021/09/21 00:53:43;;;;;;;11.10;6.25;;;;;;;16.58;57.34;96498.50;5033948;28;20075;-66
2021/09/21 00:56:08;;;;;;;7.38;6.03;;;;;;;16.58;57.56;96502.97;5033893;28;20044;-66
2021/09/21 00:58:34;;;;;;;10.27;6.53;;;;;;;16.51;57.81;96494.56;5033890;28;20072;-63
2021/09/21 01:01:00;;;;;;;9.60;6.95;;;;;;;16.45;58.03;96492.31;5033828;28;20030;-65
2021/09/21 01:03:25;;;;;;;9.82;6.95;;;;;;;16.49;57.82;96501.72;5033720;28;20542;-66
2021/09/21 01:05:51;;;;;;;8.57;6.75;;;;;;;16.47;57.82;96504.47;5033598;28;20025;-64
2021/09/21 01:08:16;;;;;;;9.95;6.75;;;;;;;16.40;58.15;96498.72;5033670;28;20484;-67
2021/09/21 01:10:42;;;;;;;9.40;7.03;;;;;;;16.46;58.30;96501.94;5033567;28;20371;-67
2021/09/21 01:13:07;;;;;;;8.40;6.75;;;;;;;16.45;57.68;96489.66;5033388;28;20467;-67
2021/09/21 01:15:33;;;;;;;9.18;6.38;;;;;;;16.37;57.56;96495.41;5033556;28;20021;-65
2021/09/21 01:17:59;;;;;;;12.65;8.43;;;;;;;16.33;57.90;96496.56;5033493;28;20079;-65
2021/09/21 01:20:25;;;;;;;9.52;7.65;;;;;;;16.34;58.08;96500.91;5033395;28;20468;-66
2021/09/21 01:22:51;;;;;;;9.70;6.65;;;;;;;16.27;57.59;96497.78;5033486;28;20049;-64
2021/09/21 01:25:17;;;;;;;11.85;7.43;;;;;;;16.23;57.93;96512.97;5033340;28;20471;-67
2021/09/21 01:27:43;;;;;;;14.63;7.85;;;;;;;16.22;58.41;96502.53;5033392;28;20014;-63
2021/09/21 01:30:12;;;;;;;10.48;8.32;;;;;;;16.15;58.03;96502.03;5033307;28;20460;-67
2021/09/21 01:32:38;;;;;;;10.77;7.75;;;;;;;16.08;58.46;96503.34;5033332;28;20079;-67
2021/09/21 01:35:05;;;;;;;11.25;8.68;;;;;;;16.08;58.30;96509.50;5033289;28;20472;-64
2021/09/21 01:37:31;;;;;;;12.52;9.23;;;;;;;16.08;58.39;96504.22;5033175;28;20030;-64
2021/09/21 01:39:57;;;;;;;12.68;9.27;;;;;;;16.01;58.46;96506.34;5033132;28;20029;-64
2021/09/21 01:42:22;;;;;;;11.68;8.98;;;;;;;15.98;58.78;96503.91;5033168;28;20025;-67
2021/09/21 01:44:48;;;;;;;12.90;8.45;;;;;;;15.85;58.95;96497.63;5033112;28;20075;-66
2021/09/21 01:47:15;;;;;;;12.50;8.82;;;;;;;15.88;58.93;96502.72;5033107;28;20025;-65
2021/09/21 01:50:05;;;;;;;12.32;8.70;;;;;;;15.84;58.73;96504.72;5033056;28;20044;-66
2021/09/21 01:52:41;;;;;;;12.82;9.18;;;;;;;15.82;59.08;96498.69;5032890;28;20041;-66
2021/09/21 01:55:22;;;;;;;13.02;9.07;;;;;;;15.78;59.09;96507.72;5033163;28;20391;-69
2021/09/21 02:00:31;;;;;;;11.95;8.65;;;;;;;15.75;59.27;96513.19;5037463;28;20036;-63
2021/09/21 02:02:57;;;;;;;11.48;8.27;;;;;;;15.68;59.64;96517.94;5037116;28;20022;-66
2021/09/21 02:05:22;;;;;;;11.15;8.88;;;;;;;15.58;60.18;96509.75;5037117;28;20022;-67
2021/09/21 02:07:48;;;;;;;11.50;8.20;;;;;;;15.60;59.72;96510.53;5037017;28;20491;-69
2021/09/21 02:10:13;;;;;;;12.93;8.93;;;;;;;15.50;59.87;96512.81;5036930;28;20041;-67
2021/09/21 02:12:39;;;;;;;12.43;8.60;;;;;;;15.47;59.83;96510.38;5035866;28;20030;-66
2021/09/21 02:15:06;;;;;;;12.18;8.25;;;;;;;15.45;59.80;96517.53;5036819;28;20049;-67
2021/09/21 02:17:31;;;;;;;11.20;8.15;;;;;;;15.43;59.64;96516.75;5036928;28;20021;-69
2021/09/21 02:19:57;;;;;;;12.27;8.13;;;;;;;15.41;60.01;96516.00;5036799;28;20026;-67
2021/09/21 02:22:22;;;;;;;10.82;7.82;;;;;;;15.39;59.57;96513.44;5036899;28;20024;-63
2021/09/21 02:24:48;;;;;;;11.95;8.27;;;;;;;15.42;59.51;96517.72;5036732;28;20077;-66
2021/09/21 02:27:13;;;;;;;10.55;7.53;;;;;;;15.39;59.16;96520.53;5036897;28;20479;-68
2021/09/21 02:29:39;;;;;;;10.95;7.65;;;;;;;15.35;59.50;96529.53;5036729;28;20018;-63
2021/09/21 02:32:05;;;;;;;9.30;7.22;;;;;;;15.39;58.90;96523.97;5036727;28;20080;-67
2021/09/21 02:34:31;;;;;;;11.05;7.53;;;;;;;15.37;59.52;96517.13;5036507;28;20029;-69
2021/09/21 02:36:56;;;;;;;11.82;7.38;;;;;;;15.33;58.90;96526.13;5036600;28;20025;-69
2021/09/21 02:39:22;;;;;;;10.63;7.00;;;;;;;15.30;58.02;96535.06;5036509;28;20040;-68
2021/09/21 02:41:47;;;;;;;7.75;6.18;;;;;;;15.33;58.34;96523.50;5036490;28;20060;-67
2021/09/21 02:44:13;;;;;;;10.35;6.55;;;;;;;15.25;58.03;96524.78;5036277;28;20025;-64
2021/09/21 02:46:39;;;;;;;8.45;6.50;;;;;;;15.30;58.29;96529.81;5036265;28;20017;-69
2021/09/21 02:49:04;;;;;;;7.88;6.22;;;;;;;15.25;58.03;96537.97;5036260;28;20040;-65
2021/09/21 02:51:30;;;;;;;9.50;6.75;;;;;;;15.20;59.66;96534.72;5036190;28;20060;-63
2021/09/21 02:53:55;;;;;;;8.73;6.25;;;;;;;15.17;57.92;96537.53;5036366;28;20080;-64
2021/09/21 02:56:21;;;;;;;11.75;6.47;;;;;;;15.18;58.29;96536.63;5036125;28;20495;-66
2021/09/21 02:58:46;;;;;;;7.68;5.63;;;;;;;15.15;57.30;96542.06;5034869;28;20028;-68
2021/09/21 03:01:12;;;;;;;8.77;6.13;;;;;;;15.12;57.62;96543.09;5036149;28;20464;-68
2021/09/21 03:03:48;;;;;;;7.65;6.15;;;;;;;15.16;57.85;96544.63;5036008;28;20546;-69
2021/09/21 03:06:23;;;;;;;8.57;6.00;;;;;;;15.14;57.08;96553.56;5036083;28;20037;-67
2021/09/21 03:08:50;;;;;;;8.35;6.18;;;;;;;15.10;57.70;96555.50;5035982;28;20116;-67
2021/09/21 03:11:25;;;;;;;7.75;5.22;;;;;;;15.06;56.94;96555.75;5034960;28;20025;-64
2021/09/21 03:19:18;;;;;;;7.10;4.93;;;;;;;15.05;56.06;96560.16;5036014;28;20133;-68
2021/09/21 03:21:44;;;;;;;9.93;4.93;;;;;;;15.01;55.64;96567.41;5035626;28;20530;-65
2021/09/21 03:24:10;;;;;;;6.07;4.53;;;;;;;15.00;55.14;96557.81;5035507;28;20028;-67
2021/09/21 03:26:36;;;;;;;6.32;4.45;;;;;;;15.01;54.96;96562.13;5035588;28;20017;-67
2021/09/21 03:29:01;;;;;;;8.07;4.45;;;;;;;14.94;55.20;96570.44;5035662;28;20048;-65
2021/09/21 03:31:27;;;;;;;5.70;3.80;;;;;;;14.90;55.39;96561.88;5035425;28;20033;-65
2021/09/21 03:33:53;;;;;;;5.03;3.35;;;;;;;14.87;54.10;96569.97;5035491;28;20034;-64
2021/09/21 03:36:18;;;;;;;4.35;3.38;;;;;;;14.84;53.95;96570.13;5035383;28;20035;-65
2021/09/21 03:38:44;;;;;;;7.22;3.95;;;;;;;14.79;54.37;96573.00;5035363;28;20014;-66
2021/09/21 03:41:10;;;;;;;6.32;3.42;;;;;;;14.73;53.90;96575.94;5035396;28;20380;-64
2021/09/21 03:43:35;;;;;;;4.18;3.28;;;;;;;14.73;53.09;96573.28;5035267;28;20029;-65
2021/09/21 03:46:01;;;;;;;7.22;3.35;;;;;;;14.61;52.83;96570.41;5035220;28;20105;-64
2021/09/21 03:48:26;;;;;;;5.95;3.40;;;;;;;14.60;52.74;96583.66;5035196;28;20021;-66
2021/09/21 03:50:52;;;;;;;6.18;2.92;;;;;;;14.60;52.40;96581.03;5035274;28;20021;-67
2021/09/21 03:53:17;;;;;;;4.80;2.80;;;;;;;14.59;52.55;96593.31;5035127;28;20100;-67
2021/09/21 03:55:43;;;;;;;6.60;3.10;;;;;;;14.59;51.92;96592.47;5033772;28;20063;-64
2021/09/21 03:58:09;;;;;;;3.47;2.70;;;;;;;14.45;52.68;96601.09;5035052;28;20022;-65
2021/09/21 04:00:34;;;;;;;5.55;3.45;;;;;;;14.43;53.34;96609.06;5035013;28;20097;-64
2021/09/21 04:03:00;;;;;;;3.50;2.80;;;;;;;14.47;52.08;96604.47;5034954;28;20029;-67
2021/09/21 04:05:26;;;;;;;5.18;3.28;;;;;;;14.52;52.15;96618.28;5034820;28;20492;-67
2021/09/21 04:07:51;;;;;;;3.30;2.90;;;;;;;14.53;52.42;96625.22;5034773;28;20029;-68
2021/09/21 04:10:18;;;;;;;2.95;2.58;;;;;;;14.51;51.92;96627.09;5034772;28;20349;-66
2021/09/21 04:12:44;;;;;;;3.42;2.90;;;;;;;14.42;53.23;96630.22;5034733;28;20026;-65
2021/09/21 04:15:11;;;;;;;4.13;3.13;;;;;;;14.37;51.58;96633.06;5034458;28;20056;-65
2021/09/21 04:17:37;;;;;;;3.40;2.40;;;;;;;14.36;52.96;96637.47;5034698;28;20025;-66
2021/09/21 04:20:03;;;;;;;4.18;2.63;;;;;;;14.25;52.77;96645.09;5034544;28;20486;-66
2021/09/21 04:22:29;;;;;;;5.30;3.03;;;;;;;14.30;52.46;96652.75;5034563;28;20509;-68
2021/09/21 04:24:55;;;;;;;3.10;2.72;;;;;;;14.33;52.55;96652.59;5034523;28;20119;-67
2021/09/21 04:27:21;;;;;;;3.92;2.88;;;;;;;14.28;52.49;96655.47;5034556;28;20024;-67
2021/09/21 04:29:50;;;;;;;4.90;2.72;;;;;;;14.25;52.52;96652.97;5034492;28;20395;-66
2021/09/21 04:32:19;;;;;;;3.72;2.90;;;;;;;14.12;53.40;96658.84;5034311;28;20036;-66
2021/09/21 04:34:46;;;;;;;7.35;3.20;;;;;;;13.99;53.24;96656.00;5034265;28;20104;-67
2021/09/21 04:37:12;;;;;;;3.38;2.60;;;;;;;13.92;53.75;96662.50;5034352;28;20048;-65
2021/09/21 04:39:41;;;;;;;4.15;2.65;;;;;;;13.91;53.48;96663.44;5034296;28;20022;-66
2021/09/21 04:42:10;;;;;;;3.83;3.10;;;;;;;13.95;54.07;96670.22;5034230;28;20056;-66
2021/09/21 04:44:37;;;;;;;3.47;3.00;;;;;;;13.93;54.10;96666.00;5034043;28;20021;-68
2021/09/21 04:47:03;;;;;;;3.42;3.03;;;;;;;13.98;53.97;96658.69;5034242;28;20029;-67
2021/09/21 04:49:29;;;;;;;4.80;2.35;;;;;;;14.28;53.52;96665.97;5034189;28;20442;-63
2021/09/21 04:51:55;;;;;;;5.43;2.75;;;;;;;14.94;51.38;96674.03;5033935;28;20045;-66
2021/09/21 04:54:20;;;;;;;3.40;2.15;;;;;;;15.70;49.67;96674.28;5033925;28;20115;-68
2021/09/21 04:56:46;;;;;;;2.90;2.40;;;;;;;16.32;48.87;96685.75;5033903;28;20029;-66
2021/09/21 04:59:11;;;;;;;3.33;2.55;;;;;;;16.68;47.06;96671.28;5033936;28;20021;-67
2021/09/21 05:01:37;;;;;;;2.75;2.20;;;;;;;17.13;45.66;96666.88;5033895;28;20476;-65
2021/09/21 05:04:03;;;;;;;2.97;2.35;;;;;;;17.79;45.81;96675.00;5033516;28;20029;-65
2021/09/21 05:06:29;;;;;;;2.92;2.30;;;;;;;18.71;44.67;96686.66;5033808;28;20018;-64
2021/09/21 05:08:55;;;;;;;3.15;2.70;;;;;;;19.48;42.47;96687.56;5033703;28;20515;-66
2021/09/21 05:11:20;;;;;;;3.05;2.40;;;;;;;20.04;41.31;96683.53;5033607;28;20037;-67
2021/09/21 05:13:46;;;;;;;2.47;2.25;;;;;;;20.32;38.17;96683.28;5033388;28;20054;-67
2021/09/21 05:16:12;;;;;;;2.65;2.30;;;;;;;20.98;38.98;96687.13;5033643;28;20018;-65
2021/09/21 05:18:38;;;;;;;2.50;2.20;;;;;;;21.45;37.99;96700.31;5033534;28;20029;-66
2021/09/21 05:21:04;;;;;;;2.85;2.47;;;;;;;21.75;35.60;96707.75;5033507;28;20031;-69
2021/09/21 05:23:29;;;;;;;2.85;2.05;;;;;;;22.16;34.50;96708.03;5033567;28;20442;-68
2021/09/21 05:25:55;;;;;;;2.90;1.92;;;;;;;22.32;33.90;96712.91;5033431;28;20025;-67
2021/09/21 05:28:20;;;;;;;2.58;1.98;;;;;;;22.62;32.86;96710.50;5033342;28;20503;-69
2021/09/21 05:30:46;;;;;;;2.38;1.90;;;;;;;23.03;32.61;96715.94;5033494;28;20013;-67
2021/09/21 05:33:12;;;;;;;2.15;1.95;;;;;;;23.30;32.20;96707.34;5033027;28;20468;-67
2021/09/21 05:35:37;;;;;;;3.05;2.33;;;;;;;23.68;33.01;96701.44;5033374;28;20065;-71
2021/09/21 05:38:03;;;;;;;3.78;2.28;;;;;;;23.62;31.64;96712.69;5033214;28;20025;-70
2021/09/21 05:40:29;;;;;;;3.35;2.00;;;;;;;23.60;32.21;96715.50;5033209;28;20063;-68
2021/09/21 05:42:56;;;;;;;2.30;1.98;;;;;;;23.62;32.11;96720.69;5033053;28;20021;-65
2021/09/21 05:45:22;;;;;;;2.53;2.25;;;;;;;23.75;32.49;96723.94;5033003;28;20546;-68
2021/09/21 05:47:48;;;;;;;4.80;2.38;;;;;;;24.23;31.58;96725.03;5033206;28;20547;-65
2021/09/21 05:50:15;;;;;;;2.85;2.15;;;;;;;24.53;31.09;96735.69;5033061;28;20064;-64
2021/09/21 05:52:42;;;;;;;2.58;2.20;;;;;;;24.79;31.20;96723.56;5033045;28;20037;-66
2021/09/21 05:55:08;;;;;;;2.20;2.00;;;;;;;24.38;31.05;96737.13;5033050;28;20021;-68
2021/09/21 05:57:34;;;;;;;2.53;2.22;;;;;;;24.26;31.03;96734.56;5033034;28;20108;-67
2021/09/21 06:00:00;;;;;;;2.67;2.17;;;;;;;23.34;32.23;96731.94;5033021;28;20102;-63
2021/09/21 06:02:26;;;;;;;2.08;1.92;;;;;;;22.96;33.53;96745.78;5032903;28;20028;-68
2021/09/21 06:04:53;;;;;;;3.17;2.20;;;;;;;22.76;33.49;96746.66;5032875;28;20037;-65
2021/09/21 06:07:20;;;;;;;2.95;2.42;;;;;;;22.93;33.33;96743.38;5033027;28;20091;-67
2021/09/21 06:09:45;;;;;;;4.07;2.30;;;;;;;22.40;34.53;96747.78;5032917;28;20100;-66
2021/09/21 06:12:11;;;;;;;2.78;2.25;;;;;;;21.63;35.27;96757.50;5033007;28;20491;-66
2021/09/21 06:14:37;;;;;;;2.88;2.22;;;;;;;21.46;36.33;96757.00;5032709;28;20160;-64
2021/09/21 06:17:03;;;;;;;2.40;2.08;;;;;;;21.75;36.31;96767.19;5032761;28;20022;-66
2021/09/21 06:19:29;;;;;;;2.40;2.20;;;;;;;22.20;35.73;96768.06;5032767;28;20041;-66
2021/09/21 06:21:54;;;;;;;4.60;2.22;;;;;;;22.79;33.99;96767.72;5032857;28;20029;-69
2021/09/21 06:24:20;;;;;;;2.50;2.20;;;;;;;23.36;33.84;96764.69;5032856;28;20356;-65
2021/09/21 06:26:45;;;;;;;4.53;2.20;;;;;;;23.56;32.68;96764.78;5032682;28;20491;-65
2021/09/21 06:29:11;;;;;;;3.33;2.63;;;;;;;23.80;32.45;96769.78;5032726;28;20026;-70
2021/09/21 06:31:37;;;;;;;2.58;2.00;;;;;;;24.07;32.10;96781.66;5032765;28;20029;-66
2021/09/21 06:34:02;;;;;;;4.40;2.90;;;;;;;23.93;33.34;96780.19;5031691;28;20049;-69
2021/09/21 06:36:28;;;;;;;2.22;1.95;;;;;;;24.06;31.39;96779.97;5031585;28;20049;-66
2021/09/21 06:38:54;;;;;;;2.42;2.22;;;;;;;24.12;32.71;96781.25;5033025;28;20036;-65
2021/09/21 06:41:19;;;;;;;2.35;2.10;;;;;;;24.14;31.99;96779.28;5032671;28;20487;-68
2021/09/21 06:43:45;;;;;;;2.63;2.33;;;;;;;24.12;33.46;96794.59;5032561;28;20018;-65
2021/09/21 06:46:10;;;;;;;4.15;2.50;;;;;;;24.16;32.28;96796.03;5034593;28;20105;-66
2021/09/21 06:48:39;;;;;;;3.97;2.50;;;;;;;24.46;32.15;96799.59;5036410;28;20030;-68
2021/09/21 06:51:06;;;;;;;4.43;2.25;;;;;;;24.73;31.36;96805.22;5036467;28;20025;-67
2021/09/21 06:53:31;;;;;;;2.50;2.30;;;;;;;24.62;32.77;96808.88;5036355;28;20029;-68
2021/09/21 06:55:57;;;;;;;2.63;2.08;;;;;;;24.57;31.53;96813.81;5036078;28;20025;-68
2021/09/21 06:58:23;;;;;;;2.25;2.03;;;;;;;24.17;31.35;96819.09;5036196;28;20064;-68
2021/09/21 07:00:48;;;;;;;4.63;2.28;;;;;;;23.88;32.13;96814.50;5036137;28;20431;-68
2021/09/21 07:03:14;;;;;;;2.88;2.08;;;;;;;23.95;32.28;96820.97;5035999;28;20041;-63
2021/09/21 07:05:40;;;;;;;4.25;2.17;;;;;;;23.56;32.29;96832.34;5035946;28;20395;-68
2021/09/21 07:08:06;;;;;;;2.40;2.20;;;;;;;23.38;32.96;96839.31;5036040;28;20542;-67
2021/09/21 07:10:32;;;;;;;2.35;2.15;;;;;;;23.32;33.28;96830.78;5035957;28;20105;-64
2021/09/21 07:12:57;;;;;;;2.30;1.85;;;;;;;23.14;33.03;96830.53;5035738;28;20030;-65
2021/09/21 07:15:23;;;;;;;2.95;2.33;;;;;;;23.38;33.46;96824.13;5035816;28;20025;-68
2021/09/21 07:17:56;;;;;;;2.50;2.10;;;;;;;23.57;32.70;96825.22;5035907;28;20072;-66
2021/09/21 07:20:23;;;;;;;2.58;2.28;;;;;;;23.59;33.17;96834.75;5035867;28;20072;-69
2021/09/21 07:22:49;;;;;;;2.90;2.17;;;;;;;23.79;32.61;96829.50;5035698;28;20025;-66
2021/09/21 07:25:17;;;;;;;2.92;2.47;;;;;;;23.81;32.27;96838.22;5035622;28;20505;-68
2021/09/21 07:27:43;;;;;;;1.92;1.83;;;;;;;23.50;32.95;96834.72;5035698;28;20108;-65
2021/09/21 07:30:09;;;;;;;3.42;2.10;;;;;;;23.01;33.70;96833.41;5035717;28;20422;-65
2021/09/21 07:32:35;;;;;;;2.92;2.00;;;;;;;22.66;33.22;96830.06;5035514;28;20491;-64
2021/09/21 07:35:01;;;;;;;3.28;2.22;;;;;;;22.65;34.53;96833.72;5035465;28;20045;-69
2021/09/21 07:37:27;;;;;;;2.50;2.30;;;;;;;22.71;35.58;96835.88;5035369;28;20484;-68
2021/09/21 07:39:53;;;;;;;3.20;2.20;;;;;;;23.04;34.12;96833.16;5035284;28;20034;-67
2021/09/21 07:42:18;;;;;;;3.40;1.90;;;;;;;23.26;33.52;96825.16;5035386;28;20029;-68
2021/09/21 07:44:45;;;;;;;2.17;1.90;;;;;;;23.25;33.15;96839.44;5035199;28;20036;-65
2021/09/21 07:47:12;;;;;;;2.45;2.25;;;;;;;23.29;33.57;96836.41;5035234;28;20032;-67
2021/09/21 07:49:38;;;;;;;5.18;2.28;;;;;;;23.40;34.12;96843.53;5035161;28;20392;-65
2021/09/21 07:52:04;;;;;;;2.53;2.33;;;;;;;23.79;34.42;96850.88;5035171;28;20021;-69
2021/09/21 07:54:29;;;;;;;3.55;2.40;;;;;;;23.97;32.11;96853.75;5035217;28;20482;-65
2021/09/21 07:56:55;;;;;;;2.55;1.92;;;;;;;24.26;32.79;96845.97;5034831;28;20021;-65
2021/09/21 07:59:20;;;;;;;2.83;2.55;;;;;;;24.43;32.54;96847.13;5035069;28;20033;-67
2021/09/21 08:01:46;;;;;;;2.92;2.00;;;;;;;24.26;32.26;96840.66;5034981;28;20021;-65
2021/09/21 08:04:12;;;;;;;4.45;2.28;;;;;;;24.14;32.64;96848.75;5035002;28;20021;-66
2021/09/21 08:06:37;;;;;;;4.50;2.20;;;;;;;24.18;32.39;96847.53;5034937;28;20063;-66
2021/09/21 08:09:03;;;;;;;2.30;2.03;;;;;;;24.41;32.41;96852.59;5034958;28;20377;-67
2021/09/21 08:11:29;;;;;;;2.80;2.50;;;;;;;24.81;32.49;96858.00;5034810;28;20029;-65
2021/09/21 08:13:55;;;;;;;3.72;2.70;;;;;;;24.63;32.04;96860.53;5034512;28;20053;-70
2021/09/21 08:16:20;;;;;;;2.47;1.98;;;;;;;24.70;31.20;96867.00;5034823;28;20032;-65
2021/09/21 08:18:46;;;;;;;2.85;2.45;;;;;;;24.68;31.85;96863.63;5034720;28;20025;-67
2021/09/21 08:21:11;;;;;;;3.88;2.45;;;;;;;24.82;34.65;96873.06;5034675;28;20022;-65
2021/09/21 08:23:37;;;;;;;4.30;2.15;;;;;;;24.98;32.38;96869.84;5034509;28;20026;-67
2021/09/21 08:26:03;;;;;;;2.80;2.50;;;;;;;24.87;32.79;96873.53;5034608;28;20467;-66
2021/09/21 08:28:29;;;;;;;2.55;2.35;;;;;;;25.02;31.57;96879.28;5034587;28;20367;-64
2021/09/21 08:30:55;;;;;;;2.67;2.42;;;;;;;24.91;31.64;96877.59;5034502;28;20026;-66
2021/09/21 08:33:22;;;;;;;3.70;2.17;;;;;;;24.19;30.87;96888.44;5034349;28;20064;-63
2021/09/21 08:35:47;;;;;;;6.93;2.40;;;;;;;23.69;31.70;96884.69;5034285;28;20072;-63
2021/09/21 08:38:13;;;;;;;2.28;2.08;;;;;;;23.47;33.56;96892.72;5034334;28;20045;-67
2021/09/21 08:40:38;;;;;;;4.50;2.50;;;;;;;23.63;34.48;96887.91;5034286;28;20030;-66
2021/09/21 08:43:04;;;;;;;4.88;2.67;;;;;;;23.86;33.02;96893.91;5034295;28;20024;-65
2021/09/21 08:45:30;;;;;;;2.75;2.47;;;;;;;24.01;33.69;96893.53;5033987;28;20033;-66
2021/09/21 08:47:56;;;;;;;2.28;2.08;;;;;;;24.25;33.24;96895.91;5034037;28;20041;-66
2021/09/21 08:50:23;;;;;;;2.92;2.53;;;;;;;24.27;31.80;96890.44;5033992;28;20104;-66
2021/09/21 08:52:48;;;;;;;2.10;1.90;;;;;;;23.80;31.59;96889.09;5033982;28;20032;-65
2021/09/21 08:55:15;;;;;;;2.80;2.40;;;;;;;23.55;33.57;96885.88;5033965;28;20116;-66
2021/09/21 08:57:41;;;;;;;2.60;2.40;;;;;;;23.59;33.49;96892.63;5033816;28;20032;-66
2021/09/21 09:00:11;;;;;;;2.65;2.40;;;;;;;23.78;32.16;96891.06;5033953;28;20087;-67
2021/09/21 09:02:37;;;;;;;3.03;2.30;;;;;;;24.05;34.16;96895.81;5033951;28;20104;-64
2021/09/21 09:05:10;;;;;;;3.10;2.60;;;;;;;23.92;33.09;96888.03;5033844;28;20125;-68
2021/09/21 09:07:46;;;;;;;3.53;2.42;;;;;;;23.83;32.56;96886.16;5033394;28;20551;-67
2021/09/21 09:10:13;;;;;;;5.10;2.55;;;;;;;23.55;34.28;96885.88;5033659;28;20029;-67
2021/09/21 09:12:38;;;;;;;3.05;2.63;;;;;;;23.62;34.69;96903.06;5033629;28;20491;-65
2021/09/21 09:15:12;;;;;;;2.90;2.60;;;;;;;23.79;36.75;96893.59;5033424;28;20073;-67
2021/09/21 09:17:38;;;;;;;3.35;2.85;;;;;;;23.94;35.34;96893.22;5033660;28;20120;-69
2021/09/21 09:20:06;;;;;;;3.13;2.50;;;;;;;23.85;34.82;96894.88;5033532;28;20079;-63
2021/09/21 09:22:32;;;;;;;3.03;2.45;;;;;;;23.68;33.60;96893.66;5033555;28;20033;-63
2021/09/21 09:25:01;;;;;;;3.00;2.28;;;;;;;23.84;35.49;96907.38;5033368;28;20357;-65
2021/09/21 09:27:38;;;;;;;4.63;2.47;;;;;;;23.88;33.53;96902.63;5033360;28;20515;-68
2021/09/21 09:30:08;;;;;;;5.47;2.60;;;;;;;23.87;33.81;96900.91;5033301;28;20026;-68
2021/09/21 09:32:52;;;;;;;2.92;2.38;;;;;;;23.83;33.41;96897.69;5033381;28;20140;-65
2021/09/21 09:35:31;;;;;;;2.70;2.42;;;;;;;23.81;33.48;96902.31;5033435;28;20475;-63
2021/09/21 09:38:05;;;;;;;2.85;2.25;;;;;;;23.86;34.62;96896.56;5033277;28;20048;-67
2021/09/21 09:40:31;;;;;;;3.72;3.25;;;;;;;23.80;35.04;96897.94;5015544;28;20387;-62
2021/09/21 09:42:57;;;;;;;3.53;2.63;;;;;;;23.93;34.21;96897.72;5033237;28;20492;-66
2021/09/21 09:45:31;;;;;;;4.32;2.30;;;;;;;23.78;33.22;96899.91;5033123;28;20060;-67
2021/09/21 09:47:58;;;;;;;3.50;2.40;;;;;;;23.51;35.18;96892.47;5033091;28;20128;-62
2021/09/21 09:50:29;;;;;;;2.80;2.53;;;;;;;23.45;35.51;96888.50;5033245;28;20021;-63
2021/09/21 09:53:06;;;;;;;2.67;2.47;;;;;;;23.53;34.97;96885.16;5033254;28;20017;-67
2021/09/21 09:55:33;;;;;;;5.88;2.25;;;;;;;23.73;34.36;96878.97;5033148;28;20113;-63
2021/09/21 09:58:00;;;;;;;2.63;2.35;;;;;;;23.73;33.39;96862.94;5033013;28;20026;-63
2021/09/21 10:00:26;;;;;;;2.45;2.10;;;;;;;23.75;34.41;96869.97;5033043;28;20065;-66
2021/09/21 10:02:53;;;;;;;2.60;2.25;;;;;;;23.43;36.52;96869.94;5033149;28;20466;-66
2021/09/21 10:05:20;;;;;;;3.17;2.88;;;;;;;23.15;35.26;96880.25;5032904;28;20056;-64
2021/09/21 10:07:46;;;;;;;3.83;2.85;;;;;;;23.09;34.60;96880.78;5032995;28;20101;-64
2021/09/21 10:10:11;;;;;;;3.15;2.38;;;;;;;22.94;34.66;96862.41;5033116;28;20428;-65
2021/09/21 10:12:37;;;;;;;3.90;2.40;;;;;;;23.01;34.97;96870.75;5032892;28;20375;-67
2021/09/21 10:15:05;;;;;;;3.88;2.65;;;;;;;22.66;35.21;96867.38;5032853;28;20038;-67
2021/09/21 10:17:33;;;;;;;4.15;2.80;;;;;;;22.46;35.25;96856.50;5032948;28;20048;-68
2021/09/21 10:19:59;;;;;;;2.42;2.22;;;;;;;22.35;35.94;96869.84;5034599;28;20036;-68
2021/09/21 10:22:26;;;;;;;3.08;2.58;;;;;;;22.26;37.52;96874.13;5036786;28;20068;-62
2021/09/21 10:24:52;;;;;;;2.22;2.03;;;;;;;22.17;36.03;96872.19;5036828;28;20160;-65
2021/09/21 10:27:21;;;;;;;3.13;2.28;;;;;;;21.95;36.69;96871.25;5036896;28;20493;-66
2021/09/21 10:30:09;;;;;;;3.17;2.30;;;;;;;21.92;36.41;96874.16;5036700;28;20068;-64
2021/09/21 10:32:46;;;;;;;3.70;2.78;;;;;;;22.17;38.18;96858.88;5036634;28;20030;-62
2021/09/21 10:35:16;;;;;;;2.67;2.35;;;;;;;22.47;40.23;96855.53;5036855;28;20053;-68
2021/09/21 10:37:43;;;;;;;4.28;2.42;;;;;;;22.74;37.53;96857.91;5036665;28;20022;-64
2021/09/21 10:40:09;;;;;;;3.40;2.38;;;;;;;23.09;37.74;96854.94;5036537;28;20064;-67
2021/09/21 10:42:35;;;;;;;2.70;2.22;;;;;;;23.45;36.35;96856.47;5036462;28;20100;-65
2021/09/21 10:45:04;;;;;;;2.70;2.22;;;;;;;23.72;35.84;96860.41;5036332;28;20041;-63
2021/09/21 10:47:40;;;;;;;3.45;2.80;;;;;;;23.68;35.99;96865.16;5036522;28;20025;-67
2021/09/21 10:50:15;;;;;;;2.63;2.38;;;;;;;23.86;36.16;96861.84;5036463;28;20103;-67
2021/09/21 10:52:41;;;;;;;5.40;2.28;;;;;;;23.92;35.49;96863.13;5036315;28;20471;-64
2021/09/21 10:55:11;;;;;;;5.65;2.40;;;;;;;23.97;34.79;96852.91;5036299;28;20029;-65
2021/09/21 10:57:40;;;;;;;5.03;2.60;;;;;;;24.10;35.30;96848.16;5036348;28;20034;-64
2021/09/21 11:00:06;;;;;;;3.60;2.25;;;;;;;24.10;36.14;96847.31;5036279;28;20036;-65
2021/09/21 11:02:42;;;;;;;2.53;2.33;;;;;;;23.70;36.59;96846.34;5036499;28;20373;-62
2021/09/21 11:05:16;;;;;;;3.28;2.45;;;;;;;23.63;36.79;96848.69;5036014;28;20038;-65
2021/09/21 11:07:52;;;;;;;2.95;2.60;;;;;;;23.50;33.33;96850.75;5036080;28;20021;-68
2021/09/21 11:10:19;;;;;;;3.42;2.80;;;;;;;23.64;36.09;96841.53;5035990;28;20045;-66
2021/09/21 11:12:50;;;;;;;2.85;2.35;;;;;;;23.72;35.57;96845.22;5035798;28;20064;-67
2021/09/21 11:15:18;;;;;;;5.88;2.55;;;;;;;23.85;34.97;96846.81;5035685;28;20041;-66
2021/09/21 11:17:44;;;;;;;4.22;2.33;;;;;;;24.09;34.38;96845.63;5035847;28;20099;-67
2021/09/21 11:20:10;;;;;;;2.60;2.40;;;;;;;24.00;35.04;96843.75;5035760;28;20470;-66
2021/09/21 11:22:37;;;;;;;2.88;2.50;;;;;;;24.03;36.88;96841.69;5035661;28;20025;-64
2021/09/21 11:25:08;;;;;;;5.30;2.50;;;;;;;24.18;34.79;96849.34;5035857;28;20025;-62
2021/09/21 11:27:39;;;;;;;3.47;2.53;;;;;;;24.09;35.50;96841.16;5035790;28;20475;-67
2021/09/21 11:30:07;;;;;;;;;;;;;;;24.27;34.99;96839.66;5036216;28;20014;-66
2021/09/21 11:32:34;;;;;;;2.75;2.53;;;;;;;24.41;34.86;96844.59;5034833;28;19940;-66
2021/09/21 11:35:03;;;;;;;3.78;2.42;;;;;;;24.50;34.53;96840.25;5035521;28;20036;-65
2021/09/21 11:37:30;;;;;;;3.50;2.75;;;;;;;24.61;34.56;96837.44;5035480;28;20029;-65
2021/09/21 11:39:57;;;;;;;5.30;2.42;;;;;;;24.46;35.55;96841.50;5035617;28;20025;-67